Time;durP1;ratioP1;P1;durP2;ratioP2;P2;SDS_P1;SDS_P2;PMS_P1;PMS_P2;Temp;Humidity;BMP_temperature;BMP_pressure;BME280_temperature;BME280_humidity;BME280_pressure;Samples;Min_cycle;Max_cycle;Signal;HPM_P1;HPM_P2
2023/04/05 00:01:25;;;;;;;;;2.00;0.00;;;;;;;;117347;1184;25016;-60
2023/04/05 00:03:56;;;;;;;;;1.00;0.00;;;;;;;;117329;1192;25462;-60
2023/04/05 00:06:28;;;;;;;;;3.00;1.00;;;;;;;;117346;1196;25094;-60
2023/04/05 00:09:04;;;;;;;;;2.00;0.00;;;;;;;;117371;1196;25964;-60
2023/04/05 00:11:32;;;;;;;;;1.00;1.00;;;;;;;;117339;1192;24741;-60
2023/04/05 00:14:02;;;;;;;;;1.00;1.00;;;;;;;;117351;1183;25232;-60
2023/04/05 00:16:32;;;;;;;;;0.00;0.00;;;;;;;;117351;1188;25018;-59
2023/04/05 00:19:00;;;;;;;;;1.00;1.00;;;;;;;;117362;1196;25114;-60
2023/04/05 00:21:29;;;;;;;;;1.00;1.00;;;;;;;;117373;1192;25602;-60
2023/04/05 00:23:58;;;;;;;;;1.00;1.00;;;;;;;;117342;1182;25182;-59
2023/04/05 00:26:27;;;;;;;;;0.00;0.00;;;;;;;;117351;1196;25092;-60
2023/04/05 00:28:55;;;;;;;;;0.00;0.00;;;;;;;;117358;1182;25679;-60
2023/04/05 00:31:24;;;;;;;;;0.00;0.00;;;;;;;;117139;1185;25620;-59
2023/04/05 00:33:52;;;;;;;;;1.00;1.00;;;;;;;;117344;1187;25470;-59
2023/04/05 00:36:22;;;;;;;;;0.00;0.00;;;;;;;;117326;1196;25049;-59
2023/04/05 00:38:50;;;;;;;;;0.00;0.00;;;;;;;;117145;1196;24903;-59
2023/04/05 00:41:19;;;;;;;;;0.00;0.00;;;;;;;;117347;1183;25128;-59
2023/04/05 00:43:48;;;;;;;;;1.50;0.00;;;;;;;;117339;1196;25224;-59
2023/04/05 00:46:17;;;;;;;;;1.00;1.00;;;;;;;;117311;1183;25528;-60
2023/04/05 00:48:46;;;;;;;;;0.00;0.00;;;;;;;;117134;1196;25067;-59
2023/04/05 00:51:16;;;;;;;;;0.00;0.00;;;;;;;;117366;1183;25694;-59
2023/04/05 00:53:44;;;;;;;;;0.00;0.00;;;;;;;;117126;1196;24715;-60
2023/04/05 00:56:14;;;;;;;;;0.00;0.00;;;;;;;;117161;1183;24895;-60
2023/04/05 00:58:42;;;;;;;;;;;;;;;;;;117154;1196;25447;-60
2023/04/05 01:01:18;;;;;;;;;0.50;0.50;;;;;;;;117375;1182;25031;-59
2023/04/05 01:04:01;;;;;;;;;1.33;0.00;;;;;;;;117341;1183;25414;-60
2023/04/05 01:06:53;;;;;;;;;1.00;0.00;;;;;;;;117344;1196;24764;-60
2023/04/05 01:09:44;;;;;;;;;0.00;0.00;;;;;;;;117153;1184;24748;-59
2023/04/05 01:12:16;;;;;;;;;0.00;0.00;;;;;;;;117345;1182;25347;-60
2023/04/05 01:14:49;;;;;;;;;1.00;1.00;;;;;;;;117343;1195;25246;-60
2023/04/05 01:17:21;;;;;;;;;1.00;1.00;;;;;;;;117346;1184;25486;-59
2023/04/05 01:19:53;;;;;;;;;2.00;1.00;;;;;;;;117127;1184;25596;-59
2023/04/05 01:22:46;;;;;;;;;1.00;1.00;;;;;;;;117088;1196;25613;-60
2023/04/05 01:25:44;;;;;;;;;0.00;0.00;;;;;;;;117281;1187;24862;-60
2023/04/05 01:28:41;;;;;;;;;3.00;0.00;;;;;;;;117126;1184;24947;-63
2023/04/05 01:31:25;;;;;;;;;0.00;0.00;;;;;;;;117359;1184;24769;-62
2023/04/05 01:33:56;;;;;;;;;0.00;0.00;;;;;;;;117348;1183;24794;-61
2023/04/05 01:36:47;;;;;;;;;0.00;0.00;;;;;;;;117329;1187;25382;-60
2023/04/05 01:39:16;;;;;;;;;1.00;1.00;;;;;;;;117348;1184;25472;-60
2023/04/05 01:41:45;;;;;;;;;1.00;1.00;;;;;;;;117137;1189;24822;-59
2023/04/05 01:44:14;;;;;;;;;1.00;1.00;;;;;;;;117120;1184;26164;-60
2023/04/05 01:46:43;;;;;;;;;0.00;0.00;;;;;;;;117378;1184;25527;-59
2023/04/05 01:49:12;;;;;;;;;0.00;0.00;;;;;;;;117340;1184;25474;-59
2023/04/05 01:51:40;;;;;;;;;1.00;1.00;;;;;;;;117344;1192;25679;-59
2023/04/05 01:54:09;;;;;;;;;1.00;1.00;;;;;;;;117162;1183;25025;-60
2023/04/05 01:56:37;;;;;;;;;2.00;1.00;;;;;;;;117368;1184;25536;-59
2023/04/05 01:59:06;;;;;;;;;1.00;1.00;;;;;;;;117349;1183;25533;-59
2023/04/05 02:01:35;;;;;;;;;2.00;0.00;;;;;;;;117329;1192;25583;-60
2023/04/05 02:04:04;;;;;;;;;0.00;0.00;;;;;;;;117366;1196;25125;-60
2023/04/05 02:06:32;;;;;;;;;0.00;0.00;;;;;;;;117348;1183;25638;-60
2023/04/05 02:09:01;;;;;;;;;0.00;0.00;;;;;;;;117341;1183;25256;-59
2023/04/05 02:11:30;;;;;;;;;1.00;1.00;;;;;;;;117365;1192;25281;-59
2023/04/05 02:13:58;;;;;;;;;0.00;0.00;;;;;;;;117345;1184;24961;-59
2023/04/05 02:16:27;;;;;;;;;1.00;1.00;;;;;;;;117308;1183;25907;-60
2023/04/05 02:18:56;;;;;;;;;0.00;0.00;;;;;;;;117316;1195;25208;-59
2023/04/05 02:21:25;;;;;;;;;2.00;0.00;;;;;;;;117306;1187;24821;-59
2023/04/05 02:23:54;;;;;;;;;3.00;0.00;;;;;;;;117148;1183;24876;-60
2023/04/05 02:26:22;;;;;;;;;0.00;0.00;;;;;;;;117339;1196;25300;-60
2023/04/05 02:28:51;;;;;;;;;1.50;0.00;;;;;;;;117340;1196;25707;-59
2023/04/05 02:31:20;;;;;;;;;2.00;1.00;;;;;;;;117363;1187;24753;-59
2023/04/05 02:33:48;;;;;;;;;0.00;0.00;;;;;;;;117348;1183;25082;-60
2023/04/05 02:36:17;;;;;;;;;1.67;1.00;;;;;;;;117187;1196;25122;-59
2023/04/05 02:38:45;;;;;;;;;0.00;0.00;;;;;;;;117377;1184;24890;-59
2023/04/05 02:41:14;;;;;;;;;0.00;0.00;;;;;;;;117331;1196;25022;-59
2023/04/05 02:43:42;;;;;;;;;0.33;0.00;;;;;;;;117321;1196;25566;-60
2023/04/05 02:46:11;;;;;;;;;0.00;0.00;;;;;;;;117337;1192;25551;-60
2023/04/05 02:48:40;;;;;;;;;1.00;0.00;;;;;;;;117342;1184;25010;-59
2023/04/05 02:51:08;;;;;;;;;0.00;0.00;;;;;;;;117314;1195;25095;-60
2023/04/05 02:53:36;;;;;;;;;1.00;1.00;;;;;;;;117364;1195;24877;-59
2023/04/05 02:56:06;;;;;;;;;0.00;0.00;;;;;;;;117331;1184;24775;-60
2023/04/05 02:58:35;;;;;;;;;0.00;0.00;;;;;;;;117349;1183;24803;-59
2023/04/05 03:01:06;;;;;;;;;1.00;1.00;;;;;;;;117369;1182;26346;-60
2023/04/05 03:03:34;;;;;;;;;0.00;0.00;;;;;;;;117359;1184;25167;-60
2023/04/05 03:06:09;;;;;;;;;0.00;0.00;;;;;;;;117372;1186;25314;-60
2023/04/05 03:08:42;;;;;;;;;0.50;0.50;;;;;;;;117349;1185;24912;-60
2023/04/05 03:11:11;;;;;;;;;0.00;0.00;;;;;;;;117324;1184;25722;-60
2023/04/05 03:13:40;;;;;;;;;0.00;0.00;;;;;;;;117146;1189;25930;-60
2023/04/05 03:16:09;;;;;;;;;1.00;1.00;;;;;;;;117329;1190;25544;-60
2023/04/05 03:18:38;;;;;;;;;1.00;1.00;;;;;;;;117358;1184;24761;-59
2023/04/05 03:21:10;;;;;;;;;2.00;2.00;;;;;;;;117350;1183;24918;-60
2023/04/05 03:23:39;;;;;;;;;1.00;1.00;;;;;;;;117369;1183;25688;-60
2023/04/05 03:26:09;;;;;;;;;1.00;1.00;;;;;;;;117329;1196;25944;-59
2023/04/05 03:28:37;;;;;;;;;0.00;0.00;;;;;;;;117340;1183;25497;-60
2023/04/05 03:31:06;;;;;;;;;2.00;1.00;;;;;;;;117330;1184;25042;-59
2023/04/05 03:33:34;;;;;;;;;0.75;0.75;;;;;;;;117299;1183;25606;-59
2023/04/05 03:36:04;;;;;;;;;1.00;1.00;;;;;;;;117156;1189;25574;-59
2023/04/05 03:38:33;;;;;;;;;0.00;0.00;;;;;;;;117367;1196;24817;-60
2023/04/05 03:41:02;;;;;;;;;1.00;1.00;;;;;;;;117360;1192;25369;-59
2023/04/05 03:43:31;;;;;;;;;0.00;0.00;;;;;;;;117336;1184;25037;-60
2023/04/05 03:46:00;;;;;;;;;2.00;0.00;;;;;;;;117318;1182;25217;-59
2023/04/05 03:48:29;;;;;;;;;0.00;0.00;;;;;;;;117359;1183;25157;-60
2023/04/05 03:50:57;;;;;;;;;1.00;1.00;;;;;;;;117139;1193;24878;-59
2023/04/05 03:53:28;;;;;;;;;10.50;8.00;;;;;;;;117323;1182;24812;-60
2023/04/05 03:55:57;;;;;;;;;5.00;2.00;;;;;;;;117349;1185;25264;-60
2023/04/05 03:58:25;;;;;;;;;10.00;5.00;;;;;;;;117125;1183;25560;-60
2023/04/05 04:00:55;;;;;;;;;7.50;6.50;;;;;;;;117348;1196;25588;-60
2023/04/05 04:03:24;;;;;;;;;;;;;;;;;;117389;1194;25047;-60
2023/04/05 04:05:55;;;;;;;;;5.50;4.00;;;;;;;;117356;1184;25664;-60
2023/04/05 04:08:25;;;;;;;;;9.00;3.00;;;;;;;;117357;1196;25709;-60
2023/04/05 04:10:53;;;;;;;;;7.00;4.00;;;;;;;;117351;1194;25499;-59
2023/04/05 04:13:22;;;;;;;;;8.00;4.00;;;;;;;;117134;1184;24897;-59
2023/04/05 04:15:50;;;;;;;;;4.50;3.00;;;;;;;;117081;1184;24808;-60
2023/04/05 04:18:19;;;;;;;;;8.00;4.00;;;;;;;;117152;1196;25058;-61
2023/04/05 04:20:47;;;;;;;;;7.50;6.50;;;;;;;;117374;1187;25535;-61
2023/04/05 04:23:18;;;;;;;;;9.00;4.00;;;;;;;;117391;1193;25647;-62
2023/04/05 04:25:53;;;;;;;;;8.00;5.00;;;;;;;;117347;1196;25687;-62
2023/04/05 04:28:23;;;;;;;;;4.00;3.00;;;;;;;;117137;1196;25094;-61
2023/04/05 04:30:52;;;;;;;;;8.00;5.00;;;;;;;;117300;1183;25346;-61
2023/04/05 04:33:21;;;;;;;;;10.00;5.00;;;;;;;;117354;1182;25575;-61
2023/04/05 04:35:49;;;;;;;;;5.00;4.00;;;;;;;;117354;1184;25458;-61
2023/04/05 04:38:19;;;;;;;;;5.50;3.50;;;;;;;;117363;1196;24719;-62
2023/04/05 04:40:52;;;;;;;;;3.00;3.00;;;;;;;;117355;1196;25403;-61
2023/04/05 04:43:25;;;;;;;;;4.00;3.00;;;;;;;;117355;1184;25230;-63
2023/04/05 04:45:54;;;;;;;;;8.50;6.00;;;;;;;;117334;1196;25541;-64
2023/04/05 04:48:22;;;;;;;;;8.00;3.00;;;;;;;;117359;1182;25226;-62
2023/04/05 04:50:51;;;;;;;;;7.00;4.00;;;;;;;;117321;1196;24824;-63
2023/04/05 04:53:20;;;;;;;;;8.00;4.00;;;;;;;;117386;1196;25413;-63
2023/04/05 04:55:51;;;;;;;;;5.00;4.00;;;;;;;;117342;1189;25030;-63
2023/04/05 04:58:19;;;;;;;;;4.00;4.00;;;;;;;;117363;1182;25480;-64
2023/04/05 05:00:48;;;;;;;;;5.00;3.50;;;;;;;;117400;1184;25074;-72
2023/04/05 05:03:16;;;;;;;;;5.33;2.00;;;;;;;;117349;1184;25249;-62
2023/04/05 05:05:48;;;;;;;;;7.33;2.67;;;;;;;;117319;1184;24813;-62
2023/04/05 05:08:17;;;;;;;;;6.00;3.00;;;;;;;;117097;1183;25340;-63
2023/04/05 05:10:52;;;;;;;;;5.00;3.33;;;;;;;;117334;1182;25165;-62
2023/04/05 05:13:20;;;;;;;;;4.00;4.00;;;;;;;;117095;1188;24925;-61
2023/04/05 05:15:48;;;;;;;;;8.67;5.00;;;;;;;;117271;1189;25188;-61
2023/04/05 05:18:17;;;;;;;;;8.00;4.00;;;;;;;;117852;1187;24843;-63
2023/04/05 05:20:49;;;;;;;;;3.00;3.00;;;;;;;;117072;1184;25224;-66
2023/04/05 05:23:19;;;;;;;;;4.00;4.00;;;;;;;;117380;1182;25101;-73
2023/04/05 05:25:48;;;;;;;;;4.33;3.67;;;;;;;;117329;1184;25276;-68
2023/04/05 05:28:17;;;;;;;;;5.00;5.00;;;;;;;;117247;1196;25711;-68
2023/04/05 05:30:45;;;;;;;;;5.50;4.00;;;;;;;;117334;1187;25022;-66
2023/04/05 05:33:14;;;;;;;;;3.50;3.00;;;;;;;;117333;1196;25628;-66
2023/04/05 05:35:43;;;;;;;;;5.50;4.50;;;;;;;;117324;1195;25633;-66
2023/04/05 05:38:11;;;;;;;;;6.00;4.00;;;;;;;;117135;1196;25030;-66
2023/04/05 05:40:41;;;;;;;;;1.00;0.00;;;;;;;;117339;1182;25306;-66
2023/04/05 05:43:10;;;;;;;;;2.50;2.50;;;;;;;;117359;1182;24780;-66
2023/04/05 05:45:38;;;;;;;;;2.00;2.00;;;;;;;;117329;1183;24765;-66
2023/04/05 05:48:07;;;;;;;;;4.00;3.00;;;;;;;;117330;1184;25683;-66
2023/04/05 05:50:35;;;;;;;;;4.00;3.00;;;;;;;;117131;1183;24825;-65
2023/04/05 05:53:04;;;;;;;;;3.00;1.50;;;;;;;;117164;1183;25469;-66
2023/04/05 05:55:33;;;;;;;;;3.00;3.00;;;;;;;;117344;1192;25426;-66
2023/04/05 05:58:01;;;;;;;;;6.33;3.00;;;;;;;;117347;1184;25117;-66
2023/04/05 06:00:30;;;;;;;;;7.00;4.00;;;;;;;;117339;1183;25080;-66
2023/04/05 06:03:00;;;;;;;;;4.00;3.00;;;;;;;;117367;1183;24915;-66
2023/04/05 06:05:29;;;;;;;;;3.00;1.50;;;;;;;;117360;1182;25276;-66
2023/04/05 06:07:57;;;;;;;;;2.50;2.50;;;;;;;;117352;1184;25420;-65
2023/04/05 06:10:26;;;;;;;;;4.00;2.00;;;;;;;;117364;1184;25363;-66
2023/04/05 06:12:54;;;;;;;;;5.50;4.00;;;;;;;;117375;1187;24704;-66
2023/04/05 06:15:23;;;;;;;;;3.00;3.00;;;;;;;;117143;1183;24757;-66
2023/04/05 06:17:51;;;;;;;;;7.50;5.00;;;;;;;;117345;1196;25110;-67
2023/04/05 06:20:20;;;;;;;;;4.00;3.00;;;;;;;;117133;1184;25074;-68
2023/04/05 06:22:48;;;;;;;;;3.00;2.00;;;;;;;;117356;1182;24882;-69
2023/04/05 06:25:17;;;;;;;;;3.00;1.50;;;;;;;;117324;1182;25714;-69
2023/04/05 06:27:45;;;;;;;;;4.00;2.00;;;;;;;;117358;1184;25614;-69
2023/04/05 06:30:14;;;;;;;;;7.00;2.00;;;;;;;;117383;1183;25568;-68
2023/04/05 06:32:43;;;;;;;;;7.00;3.00;;;;;;;;117404;1184;25264;-70
2023/04/05 06:35:11;;;;;;;;;1.67;1.00;;;;;;;;117191;1184;24740;-67
2023/04/05 06:37:40;;;;;;;;;3.00;2.00;;;;;;;;117355;1182;25253;-67
2023/04/05 06:40:09;;;;;;;;;3.00;3.00;;;;;;;;117315;1196;25446;-67
2023/04/05 06:42:38;;;;;;;;;4.00;2.00;;;;;;;;117345;1196;25256;-67
2023/04/05 06:45:07;;;;;;;;;2.50;1.00;;;;;;;;117361;1191;24782;-67
2023/04/05 06:47:37;;;;;;;;;2.00;2.00;;;;;;;;117337;1184;24795;-67
2023/04/05 06:50:07;;;;;;;;;2.00;2.00;;;;;;;;117337;1184;25336;-66
2023/04/05 06:52:36;;;;;;;;;4.00;2.00;;;;;;;;117339;1182;25167;-67
2023/04/05 06:55:06;;;;;;;;;1.00;1.00;;;;;;;;117377;1187;25139;-67
2023/04/05 06:57:35;;;;;;;;;5.00;3.00;;;;;;;;117322;1187;25394;-67
2023/04/05 07:00:09;;;;;;;;;4.50;2.50;;;;;;;;117310;1196;24860;-66
2023/04/05 07:02:38;;;;;;;;;4.00;2.67;;;;;;;;117352;1182;25399;-67
2023/04/05 07:05:07;;;;;;;;;5.00;2.50;;;;;;;;117354;1182;25716;-67
2023/04/05 07:07:41;;;;;;;;;6.00;3.00;;;;;;;;117151;1182;25127;-67
2023/04/05 07:10:10;;;;;;;;;5.00;4.00;;;;;;;;117333;1183;25664;-67
2023/04/05 07:12:39;;;;;;;;;3.50;3.50;;;;;;;;117358;1187;25585;-67
2023/04/05 07:15:08;;;;;;;;;4.67;4.00;;;;;;;;117150;1183;25662;-67
2023/04/05 07:17:36;;;;;;;;;3.00;3.00;;;;;;;;117349;1182;25066;-66
2023/04/05 07:20:06;;;;;;;;;4.50;4.00;;;;;;;;117346;1196;25371;-67
2023/04/05 07:22:35;;;;;;;;;3.00;3.00;;;;;;;;117315;1195;24971;-66
2023/04/05 07:25:04;;;;;;;;;8.00;3.00;;;;;;;;117139;1188;25043;-67
2023/04/05 07:27:33;;;;;;;;;7.00;3.00;;;;;;;;117372;1183;25167;-67
2023/04/05 07:30:02;;;;;;;;;4.50;1.50;;;;;;;;117357;1196;25101;-67
2023/04/05 07:32:31;;;;;;;;;6.00;4.00;;;;;;;;117147;1183;24752;-67
2023/04/05 07:34:59;;;;;;;;;5.67;3.67;;;;;;;;117322;1196;25424;-67
2023/04/05 07:37:28;;;;;;;;;7.00;5.00;;;;;;;;117336;1196;25060;-67
2023/04/05 07:39:57;;;;;;;;;6.50;4.50;;;;;;;;117313;1196;25279;-66
2023/04/05 07:42:26;;;;;;;;;6.00;4.50;;;;;;;;117380;1188;25274;-66
2023/04/05 07:44:55;;;;;;;;;8.33;6.00;;;;;;;;117344;1183;25587;-67
2023/04/05 07:47:23;;;;;;;;;10.50;6.50;;;;;;;;117342;1183;25229;-66
2023/04/05 07:49:52;;;;;;;;;5.00;5.00;;;;;;;;117317;1196;25052;-66
2023/04/05 07:52:20;;;;;;;;;8.00;7.00;;;;;;;;117363;1196;25634;-66
2023/04/05 07:54:49;;;;;;;;;9.00;6.00;;;;;;;;117303;1184;25592;-66
2023/04/05 07:57:18;;;;;;;;;7.50;5.50;;;;;;;;117332;1184;25611;-66
2023/04/05 07:59:49;;;;;;;;;8.00;7.00;;;;;;;;117330;1184;25703;-66
2023/04/05 08:02:18;;;;;;;;;11.50;5.50;;;;;;;;117394;1182;24938;-65
2023/04/05 08:04:46;;;;;;;;;19.00;6.00;;;;;;;;117331;1184;25318;-66
2023/04/05 08:07:15;;;;;;;;;10.00;6.00;;;;;;;;117337;1182;25485;-66
2023/04/05 08:09:44;;;;;;;;;11.33;6.00;;;;;;;;117365;1183;25687;-65
2023/04/05 08:12:13;;;;;;;;;18.50;5.50;;;;;;;;117347;1190;24916;-67
2023/04/05 08:14:41;;;;;;;;;15.00;8.67;;;;;;;;117332;1187;25573;-65
2023/04/05 08:17:10;;;;;;;;;9.00;5.50;;;;;;;;117349;1184;25485;-66
2023/04/05 08:19:38;;;;;;;;;17.67;6.67;;;;;;;;117126;1196;24780;-66
2023/04/05 08:22:07;;;;;;;;;15.67;7.33;;;;;;;;117328;1184;25280;-66
2023/04/05 08:24:35;;;;;;;;;8.00;6.00;;;;;;;;117329;1196;25607;-66
2023/04/05 08:27:04;;;;;;;;;5.50;5.50;;;;;;;;117389;1183;24828;-65
2023/04/05 08:29:32;;;;;;;;;14.50;9.00;;;;;;;;117323;1190;24813;-65
2023/04/05 08:32:01;;;;;;;;;13.00;7.00;;;;;;;;117171;1192;25268;-66
2023/04/05 08:34:29;;;;;;;;;20.00;10.00;;;;;;;;117129;1184;24846;-66
2023/04/05 08:36:58;;;;;;;;;18.50;11.00;;;;;;;;117339;1184;25243;-66
2023/04/05 08:39:27;;;;;;;;;17.00;7.00;;;;;;;;117325;1196;25008;-66
2023/04/05 08:42:16;;;;;;;;;12.50;7.00;;;;;;;;117333;1183;25420;-66
2023/04/05 08:44:46;;;;;;;;;14.50;9.00;;;;;;;;117124;1183;25253;-67
2023/04/05 08:47:17;;;;;;;;;15.00;8.50;;;;;;;;117134;1185;24933;-67
2023/04/05 08:49:47;;;;;;;;;25.00;11.00;;;;;;;;117323;1182;25413;-67
2023/04/05 08:52:16;;;;;;;;;17.00;8.50;;;;;;;;117156;1195;25492;-66
2023/04/05 08:54:45;;;;;;;;;18.67;13.00;;;;;;;;117341;1188;24671;-67
2023/04/05 08:57:15;;;;;;;;;11.50;9.00;;;;;;;;117122;1185;25111;-67
2023/04/05 08:59:44;;;;;;;;;22.00;12.00;;;;;;;;117130;1184;25135;-67
2023/04/05 09:02:18;;;;;;;;;16.00;6.00;;;;;;;;117365;1184;25199;-67
2023/04/05 09:04:46;;;;;;;;;18.00;12.00;;;;;;;;117350;1184;25316;-66
2023/04/05 09:07:15;;;;;;;;;22.33;11.67;;;;;;;;117111;1188;25143;-67
2023/04/05 09:09:47;;;;;;;;;12.00;8.00;;;;;;;;117146;1196;25601;-67
2023/04/05 09:12:16;;;;;;;;;17.00;11.00;;;;;;;;117317;1190;24943;-67
2023/04/05 09:14:47;;;;;;;;;18.00;12.00;;;;;;;;117072;1184;25654;-66
2023/04/05 09:17:19;;;;;;;;;22.00;10.00;;;;;;;;117138;1183;24993;-69
2023/04/05 09:19:50;;;;;;;;;;;;;;;;;;117320;1196;25613;-67
2023/04/05 09:22:19;;;;;;;;;23.33;11.00;;;;;;;;117374;1183;25282;-66
2023/04/05 09:24:47;;;;;;;;;20.67;12.67;;;;;;;;117325;1196;25623;-66
2023/04/05 09:27:19;;;;;;;;;9.00;8.00;;;;;;;;117351;1182;25592;-66
2023/04/05 09:29:49;;;;;;;;;13.00;10.00;;;;;;;;117172;1196;24796;-66
2023/04/05 09:32:23;;;;;;;;;15.00;11.50;;;;;;;;117364;1196;25580;-66
2023/04/05 09:34:52;;;;;;;;;14.00;8.50;;;;;;;;117166;1184;24728;-66
2023/04/05 09:37:21;;;;;;;;;16.00;11.33;;;;;;;;117352;1184;25270;-66
2023/04/05 09:40:02;;;;;;;;;18.00;10.50;;;;;;;;117172;1184;25048;-65
2023/04/05 09:42:42;;;;;;;;;14.00;9.00;;;;;;;;117348;1182;25232;-66
2023/04/05 09:45:12;;;;;;;;;20.00;10.00;;;;;;;;117314;1187;25579;-65
2023/04/05 09:47:40;;;;;;;;;24.00;9.00;;;;;;;;117153;1196;24726;-66
2023/04/05 09:50:15;;;;;;;;;19.00;12.00;;;;;;;;117365;1196;25401;-66
2023/04/05 09:52:43;;;;;;;;;20.00;10.00;;;;;;;;117344;1184;24816;-66
2023/04/05 09:55:13;;;;;;;;;15.00;9.50;;;;;;;;117335;1182;25102;-66
2023/04/05 09:57:44;;;;;;;;;18.50;11.00;;;;;;;;117354;1182;25384;-66
2023/04/05 10:00:19;;;;;;;;;18.33;11.67;;;;;;;;117335;1183;25642;-66
2023/04/05 10:02:55;;;;;;;;;23.00;11.00;;;;;;;;117337;1186;25058;-66
2023/04/05 10:05:26;;;;;;;;;23.00;13.00;;;;;;;;117347;1182;25455;-66
2023/04/05 10:07:55;;;;;;;;;21.00;9.50;;;;;;;;117350;1184;25078;-66
2023/04/05 10:10:24;;;;;;;;;8.00;2.00;;;;;;;;117337;1182;25737;-66
2023/04/05 10:12:53;;;;;;;;;19.75;10.25;;;;;;;;117337;1182;25099;-66
2023/04/05 10:15:23;;;;;;;;;20.00;12.00;;;;;;;;117337;1196;25675;-66
2023/04/05 10:18:01;;;;;;;;;21.00;12.50;;;;;;;;117165;1187;25445;-66
2023/04/05 10:20:32;;;;;;;;;24.00;10.00;;;;;;;;117322;1187;25140;-66
2023/04/05 10:23:10;;;;;;;;;6.33;5.33;;;;;;;;117124;1189;25319;-66
2023/04/05 10:25:52;;;;;;;;;14.50;10.00;;;;;;;;117341;1187;24796;-66
2023/04/05 10:28:32;;;;;;;;;23.00;12.50;;;;;;;;117356;1182;25008;-66
2023/04/05 10:31:32;;;;;;;;;25.50;16.00;;;;;;;;117347;1196;25079;-65
2023/04/05 10:34:07;;;;;;;;;28.00;13.50;;;;;;;;117337;1196;25510;-66
2023/04/05 10:36:45;;;;;;;;;28.00;15.00;;;;;;;;117079;1193;25634;-66
2023/04/05 10:39:24;;;;;;;;;28.00;12.00;;;;;;;;117347;1187;25078;-67
2023/04/05 10:41:56;;;;;;;;;24.00;13.00;;;;;;;;117158;1193;24868;-66
2023/04/05 10:44:25;;;;;;;;;27.50;12.75;;;;;;;;117134;1196;24969;-66
2023/04/05 10:46:55;;;;;;;;;27.00;14.00;;;;;;;;117345;1192;24739;-66
2023/04/05 10:49:48;;;;;;;;;33.00;17.00;;;;;;;;117107;1184;24897;-66
2023/04/05 10:52:17;;;;;;;;;25.50;14.50;;;;;;;;117348;1183;24838;-66
2023/04/05 10:54:46;;;;;;;;;27.00;11.00;;;;;;;;117134;1194;25572;-65
2023/04/05 10:57:18;;;;;;;;;22.50;11.00;;;;;;;;117130;1187;25273;-66
2023/04/05 10:59:47;;;;;;;;;29.50;15.50;;;;;;;;117108;1183;25361;-66
2023/04/05 11:02:17;;;;;;;;;27.67;15.00;;;;;;;;117180;1184;24825;-66
2023/04/05 11:04:45;;;;;;;;;31.50;14.00;;;;;;;;117341;1190;25364;-67
2023/04/05 11:07:15;;;;;;;;;28.00;15.67;;;;;;;;117112;1184;24852;-66
2023/04/05 11:10:03;;;;;;;;;26.00;13.00;;;;;;;;117359;1184;25471;-66
2023/04/05 11:13:05;;;;;;;;;17.00;11.00;;;;;;;;117340;1182;25604;-67
2023/04/05 11:15:35;;;;;;;;;23.00;14.00;;;;;;;;117374;1193;24723;-72
2023/04/05 11:18:10;;;;;;;;;22.50;17.50;;;;;;;;117371;1182;25286;-69
2023/04/05 11:20:41;;;;;;;;;24.00;13.00;;;;;;;;117352;1182;25456;-65
2023/04/05 11:23:11;;;;;;;;;5.00;5.00;;;;;;;;117343;1187;24742;-67
2023/04/05 11:26:14;;;;;;;;;19.00;12.00;;;;;;;;117349;1183;25562;-66
2023/04/05 11:28:43;;;;;;;;;20.50;14.50;;;;;;;;117225;1196;25086;-66
2023/04/05 11:31:12;;;;;;;;;23.00;18.00;;;;;;;;117364;1182;25116;-68
2023/04/05 11:33:41;;;;;;;;;21.00;16.00;;;;;;;;117345;1182;25156;-63
2023/04/05 11:36:09;;;;;;;;;24.00;13.00;;;;;;;;117353;1182;24786;-65
2023/04/05 11:38:41;;;;;;;;;17.50;10.50;;;;;;;;117159;1184;25409;-64
2023/04/05 11:41:16;;;;;;;;;15.00;11.25;;;;;;;;117100;1196;25366;-66
2023/04/05 11:43:50;;;;;;;;;21.00;14.00;;;;;;;;117315;1196;24832;-75
2023/04/05 11:46:20;;;;;;;;;24.33;11.33;;;;;;;;117109;1187;25686;-63
2023/04/05 11:48:49;;;;;;;;;19.50;11.50;;;;;;;;117121;1184;25037;-62
2023/04/05 11:51:19;;;;;;;;;20.00;14.00;;;;;;;;117335;1194;25448;-61
2023/04/05 11:53:48;;;;;;;;;18.50;15.00;;;;;;;;117138;1183;24736;-61
2023/04/05 11:56:17;;;;;;;;;18.50;11.50;;;;;;;;117349;1196;24690;-62
2023/04/05 11:58:46;;;;;;;;;17.00;9.00;;;;;;;;117342;1182;25574;-62
2023/04/05 12:01:15;;;;;;;;;17.00;11.00;;;;;;;;117327;1183;25493;-61
2023/04/05 12:03:44;;;;;;;;;13.00;11.00;;;;;;;;117128;1196;24795;-62
2023/04/05 12:06:12;;;;;;;;;17.00;10.00;;;;;;;;117124;1190;24922;-62
2023/04/05 12:08:48;;;;;;;;;13.00;11.50;;;;;;;;117201;1184;25601;-61
2023/04/05 12:11:27;;;;;;;;;14.50;11.50;;;;;;;;117326;1196;25593;-61
2023/04/05 12:13:57;;;;;;;;;19.00;13.00;;;;;;;;117120;1190;25043;-61
2023/04/05 12:16:26;;;;;;;;;16.00;13.00;;;;;;;;117315;1196;24855;-61
2023/04/05 12:18:59;;;;;;;;;13.00;11.00;;;;;;;;117341;1196;25438;-61
2023/04/05 12:21:28;;;;;;;;;18.00;16.00;;;;;;;;117365;1195;25198;-62
2023/04/05 12:23:57;;;;;;;;;14.00;9.00;;;;;;;;117167;1185;24676;-61
2023/04/05 12:26:27;;;;;;;;;17.50;10.75;;;;;;;;117381;1190;25484;-61
2023/04/05 12:28:57;;;;;;;;;10.67;7.33;;;;;;;;117285;1192;25404;-62
2023/04/05 12:31:45;;;;;;;;;12.00;11.00;;;;;;;;117336;1183;25113;-63
2023/04/05 12:34:14;;;;;;;;;12.00;10.00;;;;;;;;117354;1196;25586;-65
2023/04/05 12:36:44;;;;;;;;;19.00;15.00;;;;;;;;117322;1187;25166;-63
2023/04/05 12:39:15;;;;;;;;;14.00;12.00;;;;;;;;117365;1187;25483;-62
2023/04/05 12:41:43;;;;;;;;;16.00;11.00;;;;;;;;117124;1193;26204;-62
2023/04/05 12:44:16;;;;;;;;;12.00;11.50;;;;;;;;117386;1195;24893;-62
2023/04/05 12:46:46;;;;;;;;;17.00;11.00;;;;;;;;117400;1195;24934;-62
2023/04/05 12:49:16;;;;;;;;;12.00;11.00;;;;;;;;117364;1189;25249;-62
2023/04/05 12:51:45;;;;;;;;;17.00;11.00;;;;;;;;117104;1184;25527;-64
2023/04/05 12:54:19;;;;;;;;;10.33;9.00;;;;;;;;117370;1182;25063;-62
2023/04/05 12:56:53;;;;;;;;;11.00;8.00;;;;;;;;117395;1182;25625;-60
2023/04/05 12:59:21;;;;;;;;;14.00;10.00;;;;;;;;117229;1184;25610;-60
2023/04/05 13:01:50;;;;;;;;;18.50;14.00;;;;;;;;117422;1183;25737;-61
2023/04/05 13:04:18;;;;;;;;;8.67;8.67;;;;;;;;117297;1191;25820;-61
2023/04/05 13:06:47;;;;;;;;;13.00;12.00;;;;;;;;117450;1184;24961;-62
2023/04/05 13:09:16;;;;;;;;;11.00;8.50;;;;;;;;117368;1182;25373;-61
2023/04/05 13:11:44;;;;;;;;;10.50;7.00;;;;;;;;117350;1182;25686;-61
2023/04/05 13:14:13;;;;;;;;;12.50;11.00;;;;;;;;117211;1184;25618;-62
2023/04/05 13:16:41;;;;;;;;;16.50;9.00;;;;;;;;117335;1184;25000;-63
2023/04/05 13:19:10;;;;;;;;;13.00;9.50;;;;;;;;117353;1182;25704;-65
2023/04/05 13:21:38;;;;;;;;;11.00;11.00;;;;;;;;117390;1184;25015;-60
2023/04/05 13:24:07;;;;;;;;;13.50;8.50;;;;;;;;117225;1183;25237;-60
2023/04/05 13:26:39;;;;;;;;;17.50;11.50;;;;;;;;117284;1187;25221;-60
2023/04/05 13:29:07;;;;;;;;;13.00;9.50;;;;;;;;117311;1191;24706;-60
2023/04/05 13:31:36;;;;;;;;;10.00;10.00;;;;;;;;117332;1184;25131;-61
2023/04/05 13:34:05;;;;;;;;;13.00;10.00;;;;;;;;117311;1184;25610;-61
2023/04/05 13:36:33;;;;;;;;;17.00;11.50;;;;;;;;117313;1183;25298;-61
2023/04/05 13:39:02;;;;;;;;;13.00;10.00;;;;;;;;117343;1182;24908;-60
2023/04/05 13:41:30;;;;;;;;;12.00;9.00;;;;;;;;117321;1190;25640;-62
2023/04/05 13:43:59;;;;;;;;;12.00;10.00;;;;;;;;117327;1183;25563;-60
2023/04/05 13:46:30;;;;;;;;;11.50;9.50;;;;;;;;117120;1196;25645;-61
2023/04/05 13:48:59;;;;;;;;;12.00;8.00;;;;;;;;117291;1192;25313;-61
2023/04/05 13:51:33;;;;;;;;;15.00;10.50;;;;;;;;117318;1184;25417;-60
2023/04/05 13:54:01;;;;;;;;;13.25;10.00;;;;;;;;117364;1184;25708;-60
2023/04/05 13:56:30;;;;;;;;;14.00;9.00;;;;;;;;117408;1182;24920;-62
2023/04/05 13:58:58;;;;;;;;;12.00;9.00;;;;;;;;117322;1196;25250;-59
2023/04/05 14:01:27;;;;;;;;;10.50;8.50;;;;;;;;117406;1182;25436;-60
2023/04/05 14:03:56;;;;;;;;;14.50;10.00;;;;;;;;117120;1184;25116;-62
2023/04/05 14:06:25;;;;;;;;;10.00;8.67;;;;;;;;117402;1183;24882;-61
2023/04/05 14:08:54;;;;;;;;;13.00;11.00;;;;;;;;117335;1184;25137;-60
2023/04/05 14:11:23;;;;;;;;;13.50;10.00;;;;;;;;117390;1182;26097;-61
2023/04/05 14:13:51;;;;;;;;;16.50;9.00;;;;;;;;117423;1184;25424;-62
2023/04/05 14:16:20;;;;;;;;;14.00;8.00;;;;;;;;117385;1195;25625;-61
2023/04/05 14:18:49;;;;;;;;;18.50;12.50;;;;;;;;117415;1182;25383;-61
2023/04/05 14:21:17;;;;;;;;;19.00;11.67;;;;;;;;117388;1187;25272;-60
2023/04/05 14:23:49;;;;;;;;;20.00;9.50;;;;;;;;117366;1192;25301;-63
2023/04/05 14:26:17;;;;;;;;;22.50;11.00;;;;;;;;117320;1196;25281;-61
2023/04/05 14:28:46;;;;;;;;;12.00;8.33;;;;;;;;117243;1183;24823;-62
2023/04/05 14:31:14;;;;;;;;;14.75;7.75;;;;;;;;117437;1191;25167;-61
2023/04/05 14:33:43;;;;;;;;;17.50;14.50;;;;;;;;117417;1187;25044;-61
2023/04/05 14:36:11;;;;;;;;;16.50;11.00;;;;;;;;117391;1183;25107;-60
2023/04/05 14:38:40;;;;;;;;;24.00;13.00;;;;;;;;117381;1194;25461;-60
2023/04/05 14:41:09;;;;;;;;;17.50;12.00;;;;;;;;117357;1183;25517;-60